createdAt,value
2022-10-07T03:49:42.308Z,11.01
2022-10-07T03:52:08.786Z,10.97
2022-10-07T03:54:35.331Z,10.96
2022-10-07T03:57:01.960Z,10.97
2022-10-07T03:59:28.495Z,10.97
2022-10-07T04:01:55.046Z,10.97
2022-10-07T04:04:21.550Z,11.00
2022-10-07T04:06:48.020Z,11.02
2022-10-07T04:09:14.684Z,11.04
2022-10-07T04:11:41.802Z,11.06
2022-10-07T04:14:08.567Z,11.06
2022-10-07T04:16:38.091Z,11.36
2022-10-07T04:19:06.005Z,11.22
2022-10-07T04:21:33.605Z,11.40
2022-10-07T04:24:00.290Z,11.65
2022-10-07T04:26:26.805Z,12.05
2022-10-07T04:28:53.433Z,12.21
2022-10-07T04:31:20.158Z,12.51
2022-10-07T04:33:46.634Z,12.95
2022-10-07T04:36:13.377Z,13.07
2022-10-07T04:38:39.935Z,13.49
2022-10-07T04:41:07.472Z,13.53
2022-10-07T04:43:34.754Z,13.74
2022-10-07T04:46:02.793Z,13.92
2022-10-07T04:48:29.826Z,14.07
2022-10-07T04:51:01.550Z,14.25
2022-10-07T04:53:28.271Z,14.35
2022-10-07T04:55:54.821Z,14.72
2022-10-07T04:58:21.410Z,14.66
2022-10-07T05:00:49.215Z,15.01
2022-10-07T05:03:17.667Z,14.96
2022-10-07T05:05:46.625Z,15.06
2022-10-07T05:08:14.837Z,15.17
2022-10-07T05:10:42.398Z,15.26
2022-10-07T05:13:14.252Z,15.40
2022-10-07T05:15:58.649Z,15.59
2022-10-07T05:18:27.182Z,15.63
2022-10-07T05:20:54.582Z,15.71
2022-10-07T05:23:27.890Z,15.78
2022-10-07T05:26:05.033Z,15.83
2022-10-07T05:28:31.889Z,15.71
2022-10-07T05:31:16.871Z,15.72
2022-10-07T05:33:44.137Z,15.45
2022-10-07T05:36:12.219Z,15.28
2022-10-07T05:38:38.985Z,15.10
2022-10-07T05:41:07.217Z,15.35
2022-10-07T05:43:36.282Z,14.85
2022-10-07T05:46:05.453Z,14.64
2022-10-07T05:48:38.680Z,14.48
2022-10-07T05:51:07.785Z,14.31
2022-10-07T05:53:34.925Z,14.17
2022-10-07T05:56:06.400Z,14.09
2022-10-07T05:58:35.041Z,13.92
2022-10-07T06:01:06.156Z,13.80
2022-10-07T06:03:35.390Z,13.71
2022-10-07T06:06:01.891Z,13.63
2022-10-07T06:08:28.634Z,13.56
2022-10-07T06:11:13.589Z,13.84
2022-10-07T06:13:40.081Z,13.46
2022-10-07T06:16:09.121Z,13.43
2022-10-07T06:18:36.638Z,13.34
2022-10-07T06:21:03.526Z,13.29
2022-10-07T06:23:30.691Z,13.26
2022-10-07T06:26:06.073Z,13.32
2022-10-07T06:28:42.108Z,13.32
2022-10-07T06:31:22.504Z,13.33
2022-10-07T06:33:49.643Z,13.24
2022-10-07T06:36:16.582Z,13.25
2022-10-07T06:38:47.298Z,13.31
2022-10-07T06:41:14.955Z,13.30
2022-10-07T06:43:41.466Z,13.32
2022-10-07T06:46:12.896Z,13.39
2022-10-07T06:48:41.195Z,13.40
2022-10-07T06:51:12.607Z,13.45
2022-10-07T06:53:39.220Z,13.48
2022-10-07T06:56:06.409Z,13.53
2022-10-07T06:58:33.363Z,13.57
2022-10-07T07:00:59.995Z,13.62
2022-10-07T07:03:26.924Z,13.96
2022-10-07T07:05:55.108Z,13.78
2022-10-07T07:08:31.990Z,13.86
2022-10-07T07:11:30.715Z,13.94
2022-10-07T07:13:57.788Z,13.96
2022-10-07T07:16:24.705Z,14.00
2022-10-07T07:18:53.143Z,14.06
2022-10-07T07:21:20.323Z,14.11
2022-10-07T07:23:46.893Z,14.15
2022-10-07T07:26:14.075Z,14.20
2022-10-07T07:28:43.956Z,14.24
2022-10-07T07:31:13.960Z,14.28
2022-10-07T07:33:40.703Z,14.34
2022-10-07T07:36:12.716Z,14.64
2022-10-07T07:38:39.991Z,14.46
2022-10-07T07:41:06.879Z,14.51
2022-10-07T07:43:33.297Z,14.56
2022-10-07T07:45:59.796Z,14.65
2022-10-07T07:48:26.928Z,14.73
2022-10-07T07:50:57.303Z,14.82
2022-10-07T07:53:23.756Z,14.88
2022-10-07T07:55:57.456Z,15.03
2022-10-07T07:58:24.521Z,15.08
2022-10-07T08:01:06.075Z,15.25
2022-10-07T08:03:33.745Z,15.29
2022-10-07T08:06:04.702Z,15.42
2022-10-07T08:08:31.588Z,15.51
2022-10-07T08:11:05.897Z,15.62
2022-10-07T08:13:33.168Z,15.72
2022-10-07T08:15:59.680Z,15.81
2022-10-07T08:18:27.110Z,15.93
2022-10-07T08:20:58.953Z,16.04
2022-10-07T08:23:30.520Z,16.13
2022-10-07T08:25:58.493Z,16.24
2022-10-07T08:28:26.532Z,16.34
2022-10-07T08:30:53.843Z,16.47
2022-10-07T08:33:21.856Z,16.55
2022-10-07T08:35:57.574Z,16.65
2022-10-07T08:38:24.041Z,16.67
2022-10-07T08:40:52.101Z,16.76
2022-10-07T08:43:22.215Z,16.82
2022-10-07T08:45:48.836Z,16.87
2022-10-07T08:48:22.201Z,17.17
2022-10-07T08:51:06.969Z,17.09
2022-10-07T08:53:37.724Z,17.15
2022-10-07T08:56:06.885Z,17.22
2022-10-07T08:58:43.529Z,17.34
2022-10-07T09:01:32.096Z,17.54
2022-10-07T09:04:21.752Z,17.63
2022-10-07T09:06:58.850Z,17.73
2022-10-07T09:09:28.273Z,17.98
2022-10-07T09:11:57.550Z,17.88
2022-10-07T09:14:39.914Z,18.03
2022-10-07T09:17:21.857Z,18.07
2022-10-07T09:19:52.357Z,18.06
2022-10-07T09:22:21.532Z,18.10
2022-10-07T09:24:49.333Z,18.15
2022-10-07T09:27:18.569Z,18.24
2022-10-07T09:29:45.141Z,18.32
2022-10-07T09:32:14.207Z,18.61
2022-10-07T09:34:41.370Z,18.50
2022-10-07T09:37:14.031Z,18.64
2022-10-07T09:39:41.646Z,18.71
2022-10-07T09:42:16.267Z,18.82
2022-10-07T09:44:42.926Z,18.89
2022-10-07T09:47:19.374Z,19.03
2022-10-07T09:49:51.796Z,19.15
2022-10-07T09:52:26.427Z,19.27
2022-10-07T09:54:55.267Z,19.36
2022-10-07T09:57:32.516Z,19.52
2022-10-07T10:00:25.937Z,19.70
2022-10-07T10:03:01.214Z,19.77
2022-10-07T10:05:32.795Z,19.90
2022-10-07T10:08:03.287Z,20.01
2022-10-07T10:10:33.255Z,20.13
2022-10-07T10:13:02.607Z,20.26
2022-10-07T10:15:38.668Z,20.35
2022-10-07T10:18:30.851Z,20.57
2022-10-07T10:21:13.837Z,20.66
2022-10-07T10:23:53.083Z,20.73
2022-10-07T10:26:33.574Z,20.89
2022-10-07T10:29:15.206Z,20.96
2022-10-07T10:32:00.416Z,21.05
2022-10-07T10:34:51.370Z,21.21
2022-10-07T10:37:21.558Z,21.24
2022-10-07T10:40:15.486Z,21.38
2022-10-07T10:43:24.027Z,21.53
2022-10-07T10:46:19.166Z,21.58
2022-10-07T10:48:59.920Z,21.61
2022-10-07T10:51:55.763Z,21.77
2022-10-07T10:54:38.035Z,21.85
2022-10-07T10:57:13.008Z,21.94
2022-10-07T11:00:13.224Z,22.03
2022-10-07T11:02:40.639Z,22.10
2022-10-07T11:05:24.132Z,22.21
2022-10-07T11:07:54.376Z,22.26
2022-10-07T11:10:53.560Z,22.45
2022-10-07T11:13:30.670Z,22.41
2022-10-07T11:16:05.004Z,22.43
2022-10-07T11:18:50.608Z,22.52
2022-10-07T11:21:26.156Z,22.51
2022-10-07T11:24:10.388Z,22.56
2022-10-07T11:26:39.588Z,22.54
2022-10-07T11:29:18.518Z,22.62
2022-10-07T11:31:54.952Z,22.67
2022-10-07T11:34:40.559Z,22.75
2022-10-07T11:37:20.463Z,22.79
2022-10-07T11:39:47.684Z,22.77
2022-10-07T11:42:21.884Z,22.80
2022-10-07T11:45:10.405Z,22.92
2022-10-07T11:47:42.892Z,22.94
2022-10-07T11:50:31.333Z,23.07
2022-10-07T11:53:08.082Z,23.07
2022-10-07T11:55:44.219Z,23.14
2022-10-07T11:58:25.416Z,23.21
2022-10-07T12:01:28.768Z,23.27
2022-10-07T12:04:27.659Z,23.27
2022-10-07T12:07:31.777Z,23.33
2022-10-07T12:10:04.976Z,23.28
2022-10-07T12:12:47.262Z,23.35
2022-10-07T12:15:29.535Z,23.42
2022-10-07T12:18:04.516Z,23.45
2022-10-07T12:20:44.972Z,23.48
2022-10-07T12:23:19.569Z,23.54
2022-10-07T12:25:48.313Z,23.55
2022-10-07T12:31:05.135Z,23.70
2022-10-07T12:33:43.300Z,23.70
2022-10-07T12:36:18.799Z,23.79
2022-10-07T12:39:08.059Z,23.76
2022-10-07T12:41:39.835Z,23.78
2022-10-07T12:44:23.973Z,23.89
2022-10-07T12:46:54.014Z,23.79
2022-10-07T12:49:30.833Z,23.81
2022-10-07T12:52:04.086Z,24.07
2022-10-07T12:54:39.263Z,23.90
2022-10-07T12:57:13.073Z,23.91
2022-10-07T12:59:58.119Z,23.89
2022-10-07T13:03:03.513Z,24.04
2022-10-07T13:05:39.067Z,24.01
2022-10-07T13:08:18.593Z,24.09
2022-10-07T13:10:57.571Z,24.00
2022-10-07T13:13:34.277Z,24.04
2022-10-07T13:16:13.917Z,24.02
2022-10-07T13:18:55.241Z,23.93
2022-10-07T13:21:49.867Z,23.86
2022-10-07T13:24:21.569Z,23.79
2022-10-07T13:26:48.177Z,23.70
2022-10-07T13:29:33.335Z,23.76
2022-10-07T13:32:05.678Z,23.66
2022-10-07T13:34:33.262Z,23.54
2022-10-07T13:37:00.085Z,23.54
2022-10-07T13:39:26.834Z,23.49
2022-10-07T13:42:00.003Z,23.52
2022-10-07T13:44:29.954Z,23.44
2022-10-07T13:47:00.209Z,23.43
2022-10-07T13:49:30.718Z,23.46
2022-10-07T13:52:02.338Z,23.46
2022-10-07T13:54:32.847Z,23.47
2022-10-07T13:57:02.504Z,23.50
2022-10-07T13:59:29.615Z,23.49
2022-10-07T14:02:01.349Z,23.51
2022-10-07T14:04:33.626Z,23.57
2022-10-07T14:07:19.504Z,23.54
2022-10-07T14:09:58.024Z,23.62
2022-10-07T14:12:49.062Z,23.71
2022-10-07T14:15:21.305Z,23.66
2022-10-07T14:17:51.061Z,23.71
2022-10-07T14:20:23.580Z,23.80
2022-10-07T14:22:56.153Z,23.85
2022-10-07T14:25:32.029Z,23.87
2022-10-07T14:27:58.959Z,23.92
2022-10-07T14:30:26.018Z,23.93
2022-10-07T14:33:30.146Z,24.08
2022-10-07T14:36:12.077Z,24.08
2022-10-07T14:38:39.681Z,23.95
2022-10-07T14:41:06.225Z,23.97
2022-10-07T14:43:34.191Z,23.97
2022-10-07T14:46:27.739Z,24.05
2022-10-07T14:48:55.218Z,24.00
2022-10-07T14:51:27.619Z,23.97
2022-10-07T14:54:01.014Z,24.00
2022-10-07T14:56:31.069Z,23.97
2022-10-07T14:58:57.827Z,23.94
2022-10-07T15:01:26.765Z,23.95
2022-10-07T15:03:53.328Z,23.96
2022-10-07T15:06:20.718Z,24.02
2022-10-07T15:08:48.615Z,24.07
2022-10-07T15:11:20.054Z,24.12
2022-10-07T15:13:47.946Z,24.18
2022-10-07T15:16:21.259Z,24.26
2022-10-07T15:18:52.177Z,24.24
2022-10-07T15:21:20.306Z,24.26
2022-10-07T15:23:51.824Z,24.30
2022-10-07T15:26:19.249Z,24.28
2022-10-07T15:28:50.368Z,24.34
2022-10-07T15:31:17.752Z,24.31
2022-10-07T15:33:44.645Z,24.31
2022-10-07T15:36:13.206Z,24.30
2022-10-07T15:38:40.657Z,24.28
2022-10-07T15:41:07.821Z,24.27
2022-10-07T15:43:35.383Z,24.24
2022-10-07T15:46:02.957Z,24.23
2022-10-07T15:48:29.506Z,24.20
2022-10-07T15:50:57.654Z,24.16
2022-10-07T15:53:25.421Z,24.10
2022-10-07T15:56:00.661Z,24.13
2022-10-07T15:58:30.458Z,24.03
2022-10-07T16:01:07.493Z,24.03
2022-10-07T16:03:40.416Z,23.88
2022-10-07T16:06:18.923Z,23.92
2022-10-07T16:08:45.730Z,23.77
2022-10-07T16:11:13.124Z,23.73
2022-10-07T16:13:44.770Z,23.72
2022-10-07T16:16:14.797Z,23.63
2022-10-07T16:18:43.705Z,23.58
2022-10-07T16:21:40.538Z,23.52
2022-10-07T16:24:14.289Z,23.51
2022-10-07T16:26:41.774Z,23.34
2022-10-07T16:29:34.875Z,23.33
2022-10-07T16:32:02.423Z,23.17
2022-10-07T16:34:29.519Z,23.08
2022-10-07T16:36:57.833Z,23.00
2022-10-07T16:39:24.451Z,22.91
2022-10-07T16:41:52.538Z,22.81
2022-10-07T16:44:20.296Z,22.69
2022-10-07T16:46:47.858Z,22.58
2022-10-07T16:49:17.313Z,22.48
2022-10-07T16:51:44.655Z,22.33
2022-10-07T16:54:14.095Z,22.22
2022-10-07T16:56:46.176Z,22.08
2022-10-07T16:59:17.458Z,21.93
2022-10-07T17:01:49.356Z,21.78
2022-10-07T17:04:16.088Z,21.63
2022-10-07T17:06:43.933Z,21.49
2022-10-07T17:09:10.412Z,21.33
2022-10-07T17:11:37.104Z,21.70
2022-10-07T17:14:07.491Z,21.15
2022-10-07T17:16:40.070Z,20.97
2022-10-07T17:19:07.227Z,20.68
2022-10-07T17:21:38.040Z,20.51
2022-10-07T17:24:05.862Z,20.38
2022-10-07T17:26:32.424Z,20.23
2022-10-07T17:29:02.250Z,20.10
2022-10-07T17:31:30.811Z,20.00
2022-10-07T17:33:58.665Z,19.89
2022-10-07T17:36:26.850Z,19.79
2022-10-07T17:38:54.314Z,19.72
2022-10-07T17:41:22.217Z,19.66
2022-10-07T17:43:51.301Z,19.59
2022-10-07T17:46:19.947Z,19.53
2022-10-07T17:48:52.302Z,19.56
2022-10-07T17:51:20.529Z,19.45
2022-10-07T17:53:48.507Z,19.39
2022-10-07T17:56:15.871Z,19.34
2022-10-07T17:58:45.933Z,19.31
2022-10-07T18:01:19.642Z,19.31
2022-10-07T18:03:51.613Z,19.27
2022-10-07T18:06:18.715Z,19.14
2022-10-07T18:08:45.212Z,19.10
2022-10-07T18:11:11.698Z,19.49
2022-10-07T18:13:56.597Z,19.05
2022-10-07T18:16:23.821Z,18.94
2022-10-07T18:18:55.429Z,18.89
2022-10-07T18:21:23.950Z,18.70
2022-10-07T18:23:54.468Z,18.59
2022-10-07T18:26:20.944Z,18.48
2022-10-07T18:28:47.668Z,18.39
2022-10-07T18:31:17.042Z,18.28
2022-10-07T18:33:44.911Z,18.12
2022-10-07T18:36:18.693Z,18.07
2022-10-07T18:38:46.042Z,17.90
2022-10-07T18:41:17.392Z,17.86
2022-10-07T18:43:45.609Z,17.70
2022-10-07T18:46:15.110Z,17.61
2022-10-07T18:48:43.527Z,17.49
2022-10-07T18:51:11.591Z,17.38
2022-10-07T18:53:40.288Z,17.30
2022-10-07T18:56:10.539Z,17.23
2022-10-07T18:58:43.156Z,17.18
2022-10-07T19:01:11.589Z,17.05
2022-10-07T19:03:38.458Z,16.93
2022-10-07T19:06:11.184Z,16.92
2022-10-07T19:08:38.007Z,16.79
2022-10-07T19:11:06.463Z,16.73
2022-10-07T19:13:50.553Z,16.66
2022-10-07T19:16:34.648Z,16.71
2022-10-07T19:19:04.933Z,16.60
2022-10-07T19:21:32.338Z,16.54
2022-10-07T19:24:01.430Z,16.52
2022-10-07T19:26:32.453Z,16.54
2022-10-07T19:28:59.524Z,16.47
2022-10-07T19:31:29.275Z,16.48
2022-10-07T19:34:02.398Z,16.45
2022-10-07T19:36:34.055Z,16.50
2022-10-07T19:39:01.860Z,16.42
2022-10-07T19:41:30.784Z,16.44
2022-10-07T19:43:57.999Z,16.42
2022-10-07T19:46:26.704Z,16.43
2022-10-07T19:48:55.455Z,16.44
2022-10-07T19:51:21.974Z,16.41
2022-10-07T19:53:48.494Z,16.42
2022-10-07T19:56:16.703Z,16.43
2022-10-07T19:58:47.994Z,16.38
2022-10-07T20:01:17.596Z,16.39
2022-10-07T20:03:44.549Z,16.38
2022-10-07T20:06:11.353Z,16.37
2022-10-07T20:08:40.369Z,16.38
2022-10-07T20:11:08.129Z,16.37
2022-10-07T20:13:35.934Z,16.35
2022-10-07T20:16:14.784Z,16.41
2022-10-07T20:18:41.557Z,16.34
2022-10-07T20:21:11.240Z,16.71
2022-10-07T20:23:40.458Z,16.40
2022-10-07T20:26:08.676Z,16.35
2022-10-07T20:28:37.722Z,16.34
2022-10-07T20:31:06.382Z,16.33
2022-10-07T20:33:40.917Z,16.40
2022-10-07T20:36:08.483Z,16.30
2022-10-07T22:16:15.454Z,16.24
2022-10-07T22:18:49.383Z,16.20
2022-10-07T22:21:21.655Z,16.14
2022-10-07T22:23:56.175Z,16.11
2022-10-07T22:26:25.724Z,16.11
2022-10-07T22:28:52.500Z,16.07
2022-10-07T22:31:19.306Z,16.07
2022-10-07T22:33:51.859Z,16.11
2022-10-07T22:36:19.276Z,16.06
2022-10-07T22:38:45.919Z,16.03
2022-10-07T22:41:14.143Z,16.35
2022-10-07T22:43:44.255Z,16.06
2022-10-07T22:46:26.907Z,16.10
2022-10-07T22:48:58.163Z,16.02
2022-10-07T22:51:28.439Z,15.94
2022-10-07T22:53:56.852Z,15.92
2022-10-07T22:56:24.910Z,15.90
2022-10-07T22:59:01.611Z,15.89
2022-10-07T23:01:31.203Z,15.88
2022-10-07T23:04:03.189Z,15.88
2022-10-07T23:06:35.183Z,15.84
2022-10-07T23:09:03.804Z,15.81
2022-10-07T23:11:30.918Z,15.78
2022-10-07T23:13:57.508Z,15.78
2022-10-07T23:16:28.002Z,15.83
2022-10-07T23:18:54.761Z,15.84
2022-10-07T23:21:25.536Z,16.17
2022-10-07T23:24:01.679Z,15.96
2022-10-07T23:26:33.378Z,15.96
2022-10-07T23:29:01.032Z,15.96
2022-10-07T23:31:29.259Z,15.95
2022-10-07T23:33:57.109Z,15.95
2022-10-07T23:36:24.963Z,15.93
2022-10-07T23:38:52.464Z,15.92
2022-10-07T23:41:21.917Z,15.93
2022-10-07T23:43:50.578Z,15.89
2022-10-07T23:46:19.075Z,15.89
2022-10-07T23:48:45.668Z,15.86
2022-10-07T23:51:13.829Z,15.84
2022-10-07T23:53:40.578Z,15.81
2022-10-07T23:56:07.649Z,15.78
2022-10-07T23:58:34.652Z,15.73
